Main page


Airports :

Gloucester, England

Gloucestershire Airport

latitude: 51-54N, longitude: 002-10W, elevation: 29 m

Current weather observation

The report was made 3 hours and 49 minutes ago, at 19:20 UTC
Wind 8 kt from the South
Temperature 8°C
Humidity 66%
Pressure 1012 hPa
Visibility 10 km or more
Broken clouds at a height of 4000 ft

METAR: EGBJ 221920Z 19008KT 9999 BKN040 08/02 Q1012

Time: 23:09 (23:09 UTC)


The report was made 6 hours and 13 minutes ago, at 16:56 UTC
Forecast valid from 22 at 18 UTC to 22 at 20 UTC
Wind 12 kt from the Southwest
Visibility 10 km or more
Scattered clouds at a height of 3000 ft

TAF: EGBJ 221656Z 2218/2220 23012KT 9999 SCT030

Weather observations and forecasts of more than 4000 airports (METAR and TAF reports).

The available stations are represented by yellow and red dots on the map.

Hover mouse over dot to see the name of the station.

Then click to see weather observations and forecasts.

To change the map : click on the green buttons with a black cross to zoom in, on the green button with a dash to zoom out, or on the green arrows for adjacent maps.